sensor_id;sensor_type;location;lat;lon;timestamp;P1;durP1;ratioP1;P2;durP2;ratioP2
23716;SDS011;22094;52.130;5.598;2023-06-05T00:00:41;9.00;;;7.00;;
23716;SDS011;22094;52.130;5.598;2023-06-05T00:03:07;9.50;;;6.80;;
23716;SDS011;22094;52.130;5.598;2023-06-05T00:05:32;8.63;;;6.78;;
23716;SDS011;22094;52.130;5.598;2023-06-05T00:07:58;12.35;;;7.30;;
23716;SDS011;22094;52.130;5.598;2023-06-05T00:10:23;8.10;;;7.25;;
23716;SDS011;22094;52.130;5.598;2023-06-05T00:12:49;11.45;;;7.50;;
23716;SDS011;22094;52.130;5.598;2023-06-05T00:15:15;8.98;;;7.65;;
23716;SDS011;22094;52.130;5.598;2023-06-05T00:17:40;11.82;;;7.40;;
23716;SDS011;22094;52.130;5.598;2023-06-05T00:20:06;13.98;;;7.50;;
23716;SDS011;22094;52.130;5.598;2023-06-05T00:22:34;11.25;;;7.90;;
23716;SDS011;22094;52.130;5.598;2023-06-05T00:25:00;10.57;;;8.32;;
23716;SDS011;22094;52.130;5.598;2023-06-05T00:27:27;9.60;;;7.70;;
23716;SDS011;22094;52.130;5.598;2023-06-05T00:29:53;10.02;;;8.32;;
23716;SDS011;22094;52.130;5.598;2023-06-05T00:32:19;11.45;;;8.00;;
23716;SDS011;22094;52.130;5.598;2023-06-05T00:34:45;12.15;;;8.32;;
23716;SDS011;22094;52.130;5.598;2023-06-05T00:37:11;18.40;;;8.73;;
23716;SDS011;22094;52.130;5.598;2023-06-05T00:39:38;11.88;;;8.85;;
23716;SDS011;22094;52.130;5.598;2023-06-05T00:42:06;14.25;;;9.27;;
23716;SDS011;22094;52.130;5.598;2023-06-05T00:44:33;12.77;;;8.95;;
23716;SDS011;22094;52.130;5.598;2023-06-05T00:47:00;10.82;;;9.00;;
23716;SDS011;22094;52.130;5.598;2023-06-05T00:49:26;13.75;;;8.80;;
23716;SDS011;22094;52.130;5.598;2023-06-05T00:51:52;11.52;;;8.55;;
23716;SDS011;22094;52.130;5.598;2023-06-05T00:54:18;13.30;;;9.30;;
23716;SDS011;22094;52.130;5.598;2023-06-05T00:56:46;12.85;;;8.55;;
23716;SDS011;22094;52.130;5.598;2023-06-05T00:59:11;11.60;;;8.98;;
23716;SDS011;22094;52.130;5.598;2023-06-05T01:01:38;12.50;;;9.60;;
23716;SDS011;22094;52.130;5.598;2023-06-05T01:04:05;14.15;;;9.13;;
23716;SDS011;22094;52.130;5.598;2023-06-05T01:06:31;12.02;;;9.73;;
23716;SDS011;22094;52.130;5.598;2023-06-05T01:08:58;16.08;;;9.63;;
23716;SDS011;22094;52.130;5.598;2023-06-05T01:11:28;14.27;;;9.75;;
23716;SDS011;22094;52.130;5.598;2023-06-05T01:14:13;13.82;;;9.68;;
23716;SDS011;22094;52.130;5.598;2023-06-05T01:16:44;12.48;;;9.50;;
23716;SDS011;22094;52.130;5.598;2023-06-05T01:19:13;14.00;;;10.38;;
23716;SDS011;22094;52.130;5.598;2023-06-05T01:21:39;14.85;;;9.77;;
23716;SDS011;22094;52.130;5.598;2023-06-05T01:24:05;13.77;;;9.80;;
23716;SDS011;22094;52.130;5.598;2023-06-05T01:26:43;15.75;;;10.40;;
23716;SDS011;22094;52.130;5.598;2023-06-05T01:29:17;15.40;;;9.60;;
23716;SDS011;22094;52.130;5.598;2023-06-05T01:31:48;14.68;;;10.35;;
23716;SDS011;22094;52.130;5.598;2023-06-05T01:34:16;13.20;;;10.23;;
23716;SDS011;22094;52.130;5.598;2023-06-05T01:36:44;16.92;;;9.93;;
23716;SDS011;22094;52.130;5.598;2023-06-05T01:39:11;15.65;;;10.55;;
23716;SDS011;22094;52.130;5.598;2023-06-05T01:41:38;13.40;;;10.35;;
23716;SDS011;22094;52.130;5.598;2023-06-05T01:44:04;15.10;;;10.45;;
23716;SDS011;22094;52.130;5.598;2023-06-05T01:46:33;14.98;;;10.68;;
23716;SDS011;22094;52.130;5.598;2023-06-05T01:48:58;13.73;;;10.25;;
23716;SDS011;22094;52.130;5.598;2023-06-05T01:51:27;18.13;;;11.50;;
23716;SDS011;22094;52.130;5.598;2023-06-05T01:53:53;16.80;;;11.23;;
23716;SDS011;22094;52.130;5.598;2023-06-05T01:56:19;14.85;;;10.30;;
23716;SDS011;22094;52.130;5.598;2023-06-05T01:58:46;13.75;;;11.00;;
23716;SDS011;22094;52.130;5.598;2023-06-05T02:01:12;16.20;;;11.45;;
23716;SDS011;22094;52.130;5.598;2023-06-05T02:03:41;16.08;;;11.27;;
23716;SDS011;22094;52.130;5.598;2023-06-05T02:06:12;17.38;;;11.35;;
23716;SDS011;22094;52.130;5.598;2023-06-05T02:08:39;19.63;;;11.68;;
23716;SDS011;22094;52.130;5.598;2023-06-05T02:11:05;17.00;;;11.32;;
23716;SDS011;22094;52.130;5.598;2023-06-05T02:13:34;15.13;;;11.35;;
23716;SDS011;22094;52.130;5.598;2023-06-05T02:16:05;16.42;;;11.48;;
23716;SDS011;22094;52.130;5.598;2023-06-05T02:18:32;16.83;;;11.05;;
23716;SDS011;22094;52.130;5.598;2023-06-05T02:21:02;14.57;;;11.52;;
23716;SDS011;22094;52.130;5.598;2023-06-05T02:23:28;16.65;;;11.40;;
23716;SDS011;22094;52.130;5.598;2023-06-05T02:25:54;16.88;;;11.82;;
23716;SDS011;22094;52.130;5.598;2023-06-05T02:28:20;20.25;;;12.50;;
23716;SDS011;22094;52.130;5.598;2023-06-05T02:30:46;19.92;;;12.10;;
23716;SDS011;22094;52.130;5.598;2023-06-05T02:33:13;20.13;;;11.52;;
23716;SDS011;22094;52.130;5.598;2023-06-05T02:35:39;19.58;;;11.90;;
23716;SDS011;22094;52.130;5.598;2023-06-05T02:38:07;17.27;;;11.85;;
23716;SDS011;22094;52.130;5.598;2023-06-05T02:40:35;17.48;;;12.38;;
23716;SDS011;22094;52.130;5.598;2023-06-05T02:43:00;21.58;;;11.73;;
23716;SDS011;22094;52.130;5.598;2023-06-05T02:45:26;17.83;;;12.82;;
23716;SDS011;22094;52.130;5.598;2023-06-05T02:47:52;24.15;;;12.88;;
23716;SDS011;22094;52.130;5.598;2023-06-05T02:50:18;20.95;;;12.40;;
23716;SDS011;22094;52.130;5.598;2023-06-05T02:52:43;17.73;;;11.88;;
23716;SDS011;22094;52.130;5.598;2023-06-05T02:55:09;24.40;;;13.10;;
23716;SDS011;22094;52.130;5.598;2023-06-05T02:57:35;21.05;;;12.55;;
23716;SDS011;22094;52.130;5.598;2023-06-05T03:00:09;20.65;;;12.85;;
23716;SDS011;22094;52.130;5.598;2023-06-05T03:02:39;20.45;;;13.07;;
23716;SDS011;22094;52.130;5.598;2023-06-05T03:05:05;20.27;;;13.07;;
23716;SDS011;22094;52.130;5.598;2023-06-05T03:07:32;22.00;;;12.82;;
23716;SDS011;22094;52.130;5.598;2023-06-05T03:09:58;22.08;;;12.57;;
23716;SDS011;22094;52.130;5.598;2023-06-05T03:12:24;19.83;;;12.40;;
23716;SDS011;22094;52.130;5.598;2023-06-05T03:14:50;17.02;;;13.13;;
23716;SDS011;22094;52.130;5.598;2023-06-05T03:17:16;17.83;;;13.25;;
23716;SDS011;22094;52.130;5.598;2023-06-05T03:19:41;21.92;;;12.95;;
23716;SDS011;22094;52.130;5.598;2023-06-05T03:22:07;23.17;;;13.68;;
23716;SDS011;22094;52.130;5.598;2023-06-05T03:24:32;22.23;;;13.10;;
23716;SDS011;22094;52.130;5.598;2023-06-05T03:27:02;21.17;;;13.38;;
23716;SDS011;22094;52.130;5.598;2023-06-05T03:29:29;27.20;;;13.57;;
23716;SDS011;22094;52.130;5.598;2023-06-05T03:31:55;22.48;;;14.50;;
23716;SDS011;22094;52.130;5.598;2023-06-05T03:34:20;22.15;;;13.80;;
23716;SDS011;22094;52.130;5.598;2023-06-05T03:36:47;22.38;;;13.32;;
23716;SDS011;22094;52.130;5.598;2023-06-05T03:39:13;21.27;;;13.70;;
23716;SDS011;22094;52.130;5.598;2023-06-05T03:41:39;22.52;;;13.32;;
23716;SDS011;22094;52.130;5.598;2023-06-05T03:44:04;24.33;;;14.63;;
23716;SDS011;22094;52.130;5.598;2023-06-05T03:46:32;22.75;;;13.48;;
23716;SDS011;22094;52.130;5.598;2023-06-05T03:48:59;25.42;;;14.68;;
23716;SDS011;22094;52.130;5.598;2023-06-05T03:51:26;26.65;;;14.25;;
23716;SDS011;22094;52.130;5.598;2023-06-05T03:53:55;21.27;;;14.18;;
23716;SDS011;22094;52.130;5.598;2023-06-05T03:56:23;20.13;;;13.60;;
23716;SDS011;22094;52.130;5.598;2023-06-05T03:58:53;23.40;;;13.75;;
23716;SDS011;22094;52.130;5.598;2023-06-05T04:01:21;20.30;;;13.77;;
23716;SDS011;22094;52.130;5.598;2023-06-05T04:03:46;22.65;;;13.80;;
23716;SDS011;22094;52.130;5.598;2023-06-05T04:06:14;19.35;;;13.38;;
23716;SDS011;22094;52.130;5.598;2023-06-05T04:08:40;22.45;;;12.60;;
23716;SDS011;22094;52.130;5.598;2023-06-05T04:11:06;17.85;;;11.88;;
23716;SDS011;22094;52.130;5.598;2023-06-05T04:13:31;17.95;;;11.90;;
23716;SDS011;22094;52.130;5.598;2023-06-05T04:15:57;18.80;;;12.25;;
23716;SDS011;22094;52.130;5.598;2023-06-05T04:18:22;17.95;;;11.40;;
23716;SDS011;22094;52.130;5.598;2023-06-05T04:20:49;20.00;;;11.68;;
23716;SDS011;22094;52.130;5.598;2023-06-05T04:23:14;15.85;;;11.52;;
23716;SDS011;22094;52.130;5.598;2023-06-05T04:25:40;17.13;;;10.88;;
23716;SDS011;22094;52.130;5.598;2023-06-05T04:28:10;18.90;;;10.75;;
23716;SDS011;22094;52.130;5.598;2023-06-05T04:30:36;19.77;;;10.52;;
23716;SDS011;22094;52.130;5.598;2023-06-05T04:33:02;15.60;;;10.00;;
23716;SDS011;22094;52.130;5.598;2023-06-05T04:35:31;12.93;;;9.82;;
23716;SDS011;22094;52.130;5.598;2023-06-05T04:37:58;16.48;;;10.43;;
23716;SDS011;22094;52.130;5.598;2023-06-05T04:40:24;14.63;;;9.95;;
23716;SDS011;22094;52.130;5.598;2023-06-05T04:42:50;16.38;;;10.38;;
23716;SDS011;22094;52.130;5.598;2023-06-05T04:45:17;14.30;;;9.88;;
23716;SDS011;22094;52.130;5.598;2023-06-05T04:47:43;13.45;;;9.23;;
23716;SDS011;22094;52.130;5.598;2023-06-05T04:50:20;13.70;;;9.02;;
23716;SDS011;22094;52.130;5.598;2023-06-05T04:52:47;13.43;;;9.52;;
23716;SDS011;22094;52.130;5.598;2023-06-05T04:55:13;13.35;;;8.93;;
23716;SDS011;22094;52.130;5.598;2023-06-05T04:57:38;12.60;;;8.95;;
23716;SDS011;22094;52.130;5.598;2023-06-05T05:00:04;17.60;;;9.13;;
23716;SDS011;22094;52.130;5.598;2023-06-05T05:02:32;12.10;;;9.38;;
23716;SDS011;22094;52.130;5.598;2023-06-05T05:04:58;10.18;;;8.27;;
23716;SDS011;22094;52.130;5.598;2023-06-05T05:07:23;12.57;;;8.13;;
23716;SDS011;22094;52.130;5.598;2023-06-05T05:09:51;11.57;;;8.80;;
23716;SDS011;22094;52.130;5.598;2023-06-05T05:12:17;11.57;;;8.20;;
23716;SDS011;22094;52.130;5.598;2023-06-05T05:14:42;12.45;;;8.85;;
23716;SDS011;22094;52.130;5.598;2023-06-05T05:17:09;11.90;;;8.20;;
23716;SDS011;22094;52.130;5.598;2023-06-05T05:19:35;12.98;;;7.88;;
23716;SDS011;22094;52.130;5.598;2023-06-05T05:22:04;11.32;;;7.70;;
23716;SDS011;22094;52.130;5.598;2023-06-05T05:24:30;9.90;;;8.20;;
23716;SDS011;22094;52.130;5.598;2023-06-05T05:26:56;11.02;;;8.25;;
23716;SDS011;22094;52.130;5.598;2023-06-05T05:29:25;10.75;;;8.05;;
23716;SDS011;22094;52.130;5.598;2023-06-05T05:31:51;13.27;;;7.50;;
23716;SDS011;22094;52.130;5.598;2023-06-05T05:34:17;11.18;;;7.60;;
23716;SDS011;22094;52.130;5.598;2023-06-05T05:36:43;9.40;;;7.40;;
23716;SDS011;22094;52.130;5.598;2023-06-05T05:39:09;11.43;;;7.80;;
23716;SDS011;22094;52.130;5.598;2023-06-05T05:41:35;10.80;;;7.75;;
23716;SDS011;22094;52.130;5.598;2023-06-05T05:44:00;10.52;;;7.38;;
23716;SDS011;22094;52.130;5.598;2023-06-05T05:46:26;11.13;;;7.32;;
23716;SDS011;22094;52.130;5.598;2023-06-05T05:48:52;12.70;;;7.45;;
23716;SDS011;22094;52.130;5.598;2023-06-05T05:51:19;13.93;;;7.97;;
23716;SDS011;22094;52.130;5.598;2023-06-05T05:53:46;12.35;;;7.72;;
23716;SDS011;22094;52.130;5.598;2023-06-05T05:56:11;10.20;;;7.97;;
23716;SDS011;22094;52.130;5.598;2023-06-05T05:58:37;13.70;;;7.13;;
23716;SDS011;22094;52.130;5.598;2023-06-05T06:01:02;10.18;;;7.43;;
23716;SDS011;22094;52.130;5.598;2023-06-05T06:03:28;10.48;;;7.40;;
23716;SDS011;22094;52.130;5.598;2023-06-05T06:05:54;9.93;;;6.88;;
23716;SDS011;22094;52.130;5.598;2023-06-05T06:08:21;10.20;;;7.00;;
23716;SDS011;22094;52.130;5.598;2023-06-05T06:10:47;9.23;;;6.93;;
23716;SDS011;22094;52.130;5.598;2023-06-05T06:13:13;10.70;;;6.97;;
23716;SDS011;22094;52.130;5.598;2023-06-05T06:15:39;8.35;;;6.70;;
23716;SDS011;22094;52.130;5.598;2023-06-05T06:18:05;11.45;;;7.43;;
23716;SDS011;22094;52.130;5.598;2023-06-05T06:20:31;8.07;;;6.72;;
23716;SDS011;22094;52.130;5.598;2023-06-05T06:22:58;9.98;;;7.22;;
23716;SDS011;22094;52.130;5.598;2023-06-05T06:25:24;10.43;;;7.93;;
23716;SDS011;22094;52.130;5.598;2023-06-05T06:27:53;11.27;;;7.43;;
23716;SDS011;22094;52.130;5.598;2023-06-05T06:30:19;10.68;;;7.20;;
23716;SDS011;22094;52.130;5.598;2023-06-05T06:32:46;10.32;;;7.72;;
23716;SDS011;22094;52.130;5.598;2023-06-05T06:35:12;10.57;;;7.28;;
23716;SDS011;22094;52.130;5.598;2023-06-05T06:37:40;8.13;;;6.97;;
23716;SDS011;22094;52.130;5.598;2023-06-05T06:40:07;10.15;;;6.55;;
23716;SDS011;22094;52.130;5.598;2023-06-05T06:42:36;7.97;;;6.45;;
23716;SDS011;22094;52.130;5.598;2023-06-05T06:45:02;9.10;;;6.63;;
23716;SDS011;22094;52.130;5.598;2023-06-05T06:47:29;9.40;;;6.13;;
23716;SDS011;22094;52.130;5.598;2023-06-05T06:49:55;10.40;;;6.50;;
23716;SDS011;22094;52.130;5.598;2023-06-05T06:52:22;9.85;;;6.57;;
23716;SDS011;22094;52.130;5.598;2023-06-05T06:54:48;9.35;;;6.57;;
23716;SDS011;22094;52.130;5.598;2023-06-05T06:57:14;9.38;;;6.22;;
23716;SDS011;22094;52.130;5.598;2023-06-05T06:59:40;7.60;;;6.22;;
23716;SDS011;22094;52.130;5.598;2023-06-05T07:04:35;7.10;;;5.60;;
23716;SDS011;22094;52.130;5.598;2023-06-05T07:07:01;8.80;;;6.22;;
23716;SDS011;22094;52.130;5.598;2023-06-05T07:09:27;5.97;;;5.40;;
23716;SDS011;22094;52.130;5.598;2023-06-05T07:11:53;9.70;;;6.35;;
23716;SDS011;22094;52.130;5.598;2023-06-05T07:14:19;6.13;;;4.88;;
23716;SDS011;22094;52.130;5.598;2023-06-05T07:16:45;8.15;;;5.18;;
23716;SDS011;22094;52.130;5.598;2023-06-05T07:19:12;9.85;;;5.57;;
23716;SDS011;22094;52.130;5.598;2023-06-05T07:21:38;8.68;;;5.72;;
23716;SDS011;22094;52.130;5.598;2023-06-05T07:24:05;9.10;;;6.32;;
23716;SDS011;22094;52.130;5.598;2023-06-05T07:26:31;7.75;;;5.53;;
23716;SDS011;22094;52.130;5.598;2023-06-05T07:28:57;7.18;;;5.32;;
23716;SDS011;22094;52.130;5.598;2023-06-05T07:31:23;10.32;;;5.10;;
23716;SDS011;22094;52.130;5.598;2023-06-05T07:33:48;6.68;;;5.10;;
23716;SDS011;22094;52.130;5.598;2023-06-05T07:36:14;9.43;;;4.93;;
23716;SDS011;22094;52.130;5.598;2023-06-05T07:38:40;7.72;;;4.93;;
23716;SDS011;22094;52.130;5.598;2023-06-05T07:41:08;7.15;;;4.68;;
23716;SDS011;22094;52.130;5.598;2023-06-05T07:43:36;7.70;;;5.13;;
23716;SDS011;22094;52.130;5.598;2023-06-05T07:46:04;7.47;;;5.13;;
23716;SDS011;22094;52.130;5.598;2023-06-05T07:48:30;5.45;;;4.10;;
23716;SDS011;22094;52.130;5.598;2023-06-05T07:50:56;5.50;;;4.18;;
23716;SDS011;22094;52.130;5.598;2023-06-05T07:53:22;6.18;;;4.80;;
23716;SDS011;22094;52.130;5.598;2023-06-05T07:55:48;5.97;;;4.22;;
23716;SDS011;22094;52.130;5.598;2023-06-05T07:58:16;9.02;;;4.60;;
23716;SDS011;22094;52.130;5.598;2023-06-05T08:00:42;7.03;;;4.53;;
23716;SDS011;22094;52.130;5.598;2023-06-05T08:03:13;6.13;;;4.78;;
23716;SDS011;22094;52.130;5.598;2023-06-05T08:05:48;6.00;;;4.28;;
23716;SDS011;22094;52.130;5.598;2023-06-05T08:08:15;8.95;;;5.20;;
23716;SDS011;22094;52.130;5.598;2023-06-05T08:10:41;6.75;;;4.50;;
23716;SDS011;22094;52.130;5.598;2023-06-05T08:13:07;5.97;;;4.88;;
23716;SDS011;22094;52.130;5.598;2023-06-05T08:15:33;5.50;;;4.72;;
23716;SDS011;22094;52.130;5.598;2023-06-05T08:17:59;6.85;;;4.68;;
23716;SDS011;22094;52.130;5.598;2023-06-05T08:20:24;7.28;;;4.60;;
23716;SDS011;22094;52.130;5.598;2023-06-05T08:22:50;9.23;;;4.68;;
23716;SDS011;22094;52.130;5.598;2023-06-05T08:25:15;6.32;;;4.50;;
23716;SDS011;22094;52.130;5.598;2023-06-05T08:27:41;9.05;;;4.75;;
23716;SDS011;22094;52.130;5.598;2023-06-05T08:30:07;5.47;;;4.70;;
23716;SDS011;22094;52.130;5.598;2023-06-05T08:32:33;5.03;;;4.53;;
23716;SDS011;22094;52.130;5.598;2023-06-05T08:34:59;23.88;;;7.60;;
23716;SDS011;22094;52.130;5.598;2023-06-05T08:37:25;11.85;;;5.40;;
23716;SDS011;22094;52.130;5.598;2023-06-05T08:39:53;7.82;;;4.50;;
23716;SDS011;22094;52.130;5.598;2023-06-05T08:42:18;5.60;;;4.88;;
23716;SDS011;22094;52.130;5.598;2023-06-05T08:44:48;6.90;;;4.40;;
23716;SDS011;22094;52.130;5.598;2023-06-05T08:47:14;7.63;;;4.93;;
23716;SDS011;22094;52.130;5.598;2023-06-05T08:49:41;6.28;;;4.32;;
23716;SDS011;22094;52.130;5.598;2023-06-05T08:52:07;6.70;;;4.40;;
23716;SDS011;22094;52.130;5.598;2023-06-05T08:54:37;5.70;;;4.85;;
23716;SDS011;22094;52.130;5.598;2023-06-05T08:57:06;5.13;;;4.40;;
23716;SDS011;22094;52.130;5.598;2023-06-05T08:59:33;7.55;;;4.90;;
23716;SDS011;22094;52.130;5.598;2023-06-05T09:01:59;7.53;;;5.03;;
23716;SDS011;22094;52.130;5.598;2023-06-05T09:04:25;8.73;;;4.57;;
23716;SDS011;22094;52.130;5.598;2023-06-05T09:06:55;18.98;;;5.68;;
23716;SDS011;22094;52.130;5.598;2023-06-05T09:09:21;8.95;;;4.50;;
23716;SDS011;22094;52.130;5.598;2023-06-05T09:11:47;5.03;;;4.10;;
23716;SDS011;22094;52.130;5.598;2023-06-05T09:14:29;4.75;;;4.13;;
23716;SDS011;22094;52.130;5.598;2023-06-05T09:16:58;5.97;;;4.53;;
23716;SDS011;22094;52.130;5.598;2023-06-05T09:19:25;5.43;;;4.43;;
23716;SDS011;22094;52.130;5.598;2023-06-05T09:22:05;5.53;;;4.30;;
23716;SDS011;22094;52.130;5.598;2023-06-05T09:24:31;4.82;;;4.32;;
23716;SDS011;22094;52.130;5.598;2023-06-05T09:26:59;5.78;;;4.63;;
23716;SDS011;22094;52.130;5.598;2023-06-05T09:31:52;11.48;;;5.20;;
23716;SDS011;22094;52.130;5.598;2023-06-05T09:34:29;6.18;;;5.10;;
23716;SDS011;22094;52.130;5.598;2023-06-05T09:36:56;6.78;;;4.80;;
23716;SDS011;22094;52.130;5.598;2023-06-05T09:39:24;5.57;;;4.93;;
23716;SDS011;22094;52.130;5.598;2023-06-05T09:41:51;7.95;;;4.75;;
23716;SDS011;22094;52.130;5.598;2023-06-05T09:44:17;7.40;;;5.45;;
23716;SDS011;22094;52.130;5.598;2023-06-05T09:46:54;6.18;;;5.03;;
23716;SDS011;22094;52.130;5.598;2023-06-05T09:49:23;8.90;;;5.00;;
23716;SDS011;22094;52.130;5.598;2023-06-05T09:51:49;6.15;;;5.45;;
23716;SDS011;22094;52.130;5.598;2023-06-05T09:54:15;8.05;;;4.80;;
23716;SDS011;22094;52.130;5.598;2023-06-05T09:56:46;8.15;;;4.68;;
23716;SDS011;22094;52.130;5.598;2023-06-05T09:59:21;7.53;;;4.70;;
23716;SDS011;22094;52.130;5.598;2023-06-05T10:01:50;5.35;;;4.82;;
23716;SDS011;22094;52.130;5.598;2023-06-05T10:04:21;7.47;;;4.80;;
23716;SDS011;22094;52.130;5.598;2023-06-05T10:06:48;6.68;;;5.15;;
23716;SDS011;22094;52.130;5.598;2023-06-05T10:09:16;6.32;;;5.22;;
23716;SDS011;22094;52.130;5.598;2023-06-05T10:11:43;6.63;;;5.20;;
23716;SDS011;22094;52.130;5.598;2023-06-05T10:14:09;8.05;;;5.05;;
23716;SDS011;22094;52.130;5.598;2023-06-05T10:16:35;7.20;;;5.20;;
23716;SDS011;22094;52.130;5.598;2023-06-05T10:19:02;5.88;;;4.95;;
23716;SDS011;22094;52.130;5.598;2023-06-05T10:21:28;5.13;;;4.63;;
23716;SDS011;22094;52.130;5.598;2023-06-05T10:24:00;6.65;;;5.10;;
23716;SDS011;22094;52.130;5.598;2023-06-05T10:26:38;7.75;;;5.43;;
23716;SDS011;22094;52.130;5.598;2023-06-05T10:32:13;6.28;;;4.80;;
23716;SDS011;22094;52.130;5.598;2023-06-05T10:39:56;5.57;;;5.03;;
23716;SDS011;22094;52.130;5.598;2023-06-05T10:42:26;5.25;;;4.75;;
23716;SDS011;22094;52.130;5.598;2023-06-05T10:44:53;5.72;;;4.60;;
23716;SDS011;22094;52.130;5.598;2023-06-05T10:52:43;5.32;;;4.82;;
23716;SDS011;22094;52.130;5.598;2023-06-05T10:55:12;5.55;;;4.45;;
23716;SDS011;22094;52.130;5.598;2023-06-05T11:00:28;5.65;;;4.70;;
23716;SDS011;22094;52.130;5.598;2023-06-05T11:02:54;5.85;;;4.95;;
23716;SDS011;22094;52.130;5.598;2023-06-05T11:05:21;5.47;;;4.32;;
23716;SDS011;22094;52.130;5.598;2023-06-05T11:07:47;9.02;;;4.88;;
23716;SDS011;22094;52.130;5.598;2023-06-05T11:17:54;9.75;;;4.47;;
23716;SDS011;22094;52.130;5.598;2023-06-05T11:30:32;5.78;;;3.47;;
23716;SDS011;22094;52.130;5.598;2023-06-05T11:33:10;4.32;;;3.65;;
23716;SDS011;22094;52.130;5.598;2023-06-05T11:35:37;4.38;;;3.75;;
23716;SDS011;22094;52.130;5.598;2023-06-05T11:38:17;12.40;;;4.07;;
23716;SDS011;22094;52.130;5.598;2023-06-05T11:40:43;4.53;;;4.13;;
23716;SDS011;22094;52.130;5.598;2023-06-05T11:43:13;6.72;;;4.18;;
23716;SDS011;22094;52.130;5.598;2023-06-05T11:45:40;17.05;;;5.47;;
23716;SDS011;22094;52.130;5.598;2023-06-05T11:48:09;11.38;;;4.57;;
23716;SDS011;22094;52.130;5.598;2023-06-05T11:50:37;4.70;;;4.20;;
23716;SDS011;22094;52.130;5.598;2023-06-05T11:53:10;8.75;;;4.78;;
23716;SDS011;22094;52.130;5.598;2023-06-05T11:55:38;4.70;;;3.85;;
23716;SDS011;22094;52.130;5.598;2023-06-05T11:58:19;12.18;;;4.82;;
23716;SDS011;22094;52.130;5.598;2023-06-05T12:00:49;4.43;;;3.95;;
23716;SDS011;22094;52.130;5.598;2023-06-05T12:03:19;3.83;;;3.42;;
23716;SDS011;22094;52.130;5.598;2023-06-05T12:05:46;4.00;;;3.70;;
23716;SDS011;22094;52.130;5.598;2023-06-05T12:08:26;4.85;;;3.53;;
23716;SDS011;22094;52.130;5.598;2023-06-05T12:10:54;4.90;;;3.72;;
23716;SDS011;22094;52.130;5.598;2023-06-05T12:13:23;8.55;;;3.80;;
23716;SDS011;22094;52.130;5.598;2023-06-05T12:15:58;7.32;;;3.30;;
23716;SDS011;22094;52.130;5.598;2023-06-05T12:18:33;4.60;;;3.13;;
23716;SDS011;22094;52.130;5.598;2023-06-05T12:21:00;5.60;;;3.50;;
23716;SDS011;22094;52.130;5.598;2023-06-05T12:23:28;8.52;;;3.17;;
23716;SDS011;22094;52.130;5.598;2023-06-05T12:26:00;5.05;;;2.78;;
23716;SDS011;22094;52.130;5.598;2023-06-05T12:28:27;4.28;;;3.40;;
23716;SDS011;22094;52.130;5.598;2023-06-05T12:30:53;4.43;;;3.40;;
23716;SDS011;22094;52.130;5.598;2023-06-05T12:33:19;5.13;;;3.10;;
23716;SDS011;22094;52.130;5.598;2023-06-05T12:35:48;6.90;;;3.50;;
23716;SDS011;22094;52.130;5.598;2023-06-05T12:38:26;6.35;;;3.17;;
23716;SDS011;22094;52.130;5.598;2023-06-05T12:40:52;4.28;;;3.15;;
23716;SDS011;22094;52.130;5.598;2023-06-05T12:43:18;4.57;;;2.97;;
23716;SDS011;22094;52.130;5.598;2023-06-05T12:45:44;3.78;;;3.10;;
23716;SDS011;22094;52.130;5.598;2023-06-05T12:48:10;8.30;;;2.72;;
23716;SDS011;22094;52.130;5.598;2023-06-05T12:50:37;7.63;;;2.92;;
23716;SDS011;22094;52.130;5.598;2023-06-05T12:53:06;4.53;;;2.47;;
23716;SDS011;22094;52.130;5.598;2023-06-05T12:55:32;11.80;;;3.05;;
23716;SDS011;22094;52.130;5.598;2023-06-05T12:57:58;6.28;;;2.75;;
23716;SDS011;22094;52.130;5.598;2023-06-05T13:00:24;9.25;;;3.40;;
23716;SDS011;22094;52.130;5.598;2023-06-05T13:02:50;4.05;;;3.00;;
23716;SDS011;22094;52.130;5.598;2023-06-05T13:05:16;5.70;;;2.90;;
23716;SDS011;22094;52.130;5.598;2023-06-05T13:07:42;7.53;;;2.90;;
23716;SDS011;22094;52.130;5.598;2023-06-05T13:10:09;5.72;;;2.92;;
23716;SDS011;22094;52.130;5.598;2023-06-05T13:12:38;4.53;;;2.65;;
23716;SDS011;22094;52.130;5.598;2023-06-05T13:15:04;6.50;;;2.80;;
23716;SDS011;22094;52.130;5.598;2023-06-05T13:17:32;10.90;;;3.70;;
23716;SDS011;22094;52.130;5.598;2023-06-05T13:20:00;3.83;;;3.42;;
23716;SDS011;22094;52.130;5.598;2023-06-05T13:22:28;7.00;;;3.45;;
23716;SDS011;22094;52.130;5.598;2023-06-05T13:24:54;8.88;;;2.90;;
23716;SDS011;22094;52.130;5.598;2023-06-05T13:27:20;6.43;;;3.58;;
23716;SDS011;22094;52.130;5.598;2023-06-05T13:29:46;7.00;;;4.20;;
23716;SDS011;22094;52.130;5.598;2023-06-05T13:32:12;4.80;;;3.95;;
23716;SDS011;22094;52.130;5.598;2023-06-05T13:34:38;5.43;;;3.47;;
23716;SDS011;22094;52.130;5.598;2023-06-05T13:37:04;9.90;;;3.53;;
23716;SDS011;22094;52.130;5.598;2023-06-05T13:39:30;3.95;;;3.10;;
23716;SDS011;22094;52.130;5.598;2023-06-05T13:41:56;7.72;;;4.25;;
23716;SDS011;22094;52.130;5.598;2023-06-05T13:44:22;9.55;;;4.00;;
23716;SDS011;22094;52.130;5.598;2023-06-05T13:46:48;10.27;;;4.03;;
23716;SDS011;22094;52.130;5.598;2023-06-05T13:49:14;14.05;;;4.63;;
23716;SDS011;22094;52.130;5.598;2023-06-05T13:51:41;7.70;;;4.32;;
23716;SDS011;22094;52.130;5.598;2023-06-05T13:54:06;7.10;;;4.90;;
23716;SDS011;22094;52.130;5.598;2023-06-05T13:56:32;18.25;;;5.70;;
23716;SDS011;22094;52.130;5.598;2023-06-05T13:58:58;6.15;;;4.38;;
23716;SDS011;22094;52.130;5.598;2023-06-05T14:01:24;7.22;;;4.10;;
23716;SDS011;22094;52.130;5.598;2023-06-05T14:03:50;6.15;;;4.75;;
23716;SDS011;22094;52.130;5.598;2023-06-05T14:06:17;6.30;;;5.10;;
23716;SDS011;22094;52.130;5.598;2023-06-05T14:08:43;7.78;;;5.68;;
23716;SDS011;22094;52.130;5.598;2023-06-05T14:11:09;10.63;;;4.60;;
23716;SDS011;22094;52.130;5.598;2023-06-05T14:13:35;9.18;;;4.88;;
23716;SDS011;22094;52.130;5.598;2023-06-05T14:16:02;9.15;;;4.45;;
23716;SDS011;22094;52.130;5.598;2023-06-05T14:18:28;5.50;;;4.30;;
23716;SDS011;22094;52.130;5.598;2023-06-05T14:20:55;7.22;;;4.82;;
23716;SDS011;22094;52.130;5.598;2023-06-05T14:23:20;13.10;;;5.25;;
23716;SDS011;22094;52.130;5.598;2023-06-05T14:25:49;9.85;;;5.30;;
23716;SDS011;22094;52.130;5.598;2023-06-05T14:28:14;8.93;;;5.00;;
23716;SDS011;22094;52.130;5.598;2023-06-05T14:30:41;8.40;;;5.13;;
23716;SDS011;22094;52.130;5.598;2023-06-05T14:33:06;8.68;;;5.30;;
23716;SDS011;22094;52.130;5.598;2023-06-05T14:35:32;9.15;;;5.75;;
23716;SDS011;22094;52.130;5.598;2023-06-05T14:37:58;8.48;;;5.13;;
23716;SDS011;22094;52.130;5.598;2023-06-05T14:40:24;8.57;;;4.95;;
23716;SDS011;22094;52.130;5.598;2023-06-05T14:42:50;10.18;;;5.18;;
23716;SDS011;22094;52.130;5.598;2023-06-05T14:45:16;13.75;;;5.35;;
23716;SDS011;22094;52.130;5.598;2023-06-05T14:47:41;8.75;;;4.72;;
23716;SDS011;22094;52.130;5.598;2023-06-05T14:50:09;8.07;;;4.80;;
23716;SDS011;22094;52.130;5.598;2023-06-05T14:52:35;9.43;;;5.30;;
23716;SDS011;22094;52.130;5.598;2023-06-05T14:55:01;7.85;;;4.78;;
23716;SDS011;22094;52.130;5.598;2023-06-05T14:57:27;8.00;;;4.93;;
23716;SDS011;22094;52.130;5.598;2023-06-05T14:59:52;8.13;;;5.13;;
23716;SDS011;22094;52.130;5.598;2023-06-05T15:02:18;10.50;;;4.97;;
23716;SDS011;22094;52.130;5.598;2023-06-05T15:04:47;11.27;;;5.00;;
23716;SDS011;22094;52.130;5.598;2023-06-05T15:07:17;13.23;;;5.60;;
23716;SDS011;22094;52.130;5.598;2023-06-05T15:09:43;9.32;;;5.15;;
23716;SDS011;22094;52.130;5.598;2023-06-05T15:12:09;7.65;;;5.30;;
23716;SDS011;22094;52.130;5.598;2023-06-05T15:14:35;9.30;;;5.70;;
23716;SDS011;22094;52.130;5.598;2023-06-05T15:17:01;8.30;;;5.55;;